createdAt,value
2019-05-30T00:01:13.396Z,98752.63
2019-05-30T00:03:41.459Z,98753.05
2019-05-30T00:06:09.217Z,98756.06
2019-05-30T00:08:36.991Z,98758.46
2019-05-30T00:11:04.876Z,98757.06
2019-05-30T00:13:32.734Z,98756.73
2019-05-30T00:16:00.845Z,98757.58
2019-05-30T00:18:28.735Z,98765.66
2019-05-30T00:20:56.795Z,98760.61
2019-05-30T00:23:24.718Z,98758.98
2019-05-30T00:25:52.601Z,98758.26
2019-05-30T00:28:20.360Z,98754.93
2019-05-30T00:30:48.179Z,98764.35
2019-05-30T00:33:15.934Z,98763.77
2019-05-30T00:35:43.690Z,98764.47
2019-05-30T00:38:11.812Z,98765.02
2019-05-30T00:40:39.580Z,98772.94
2019-05-30T00:43:07.340Z,98770.89
2019-05-30T00:45:35.257Z,98769.67
2019-05-30T00:48:04.268Z,98775.38
2019-05-30T00:50:32.241Z,98770.46
2019-05-30T00:53:00.724Z,98763.35
2019-05-30T00:55:28.901Z,98767.80
2019-05-30T00:57:56.793Z,98768.98
2019-05-30T01:00:41.927Z,98771.52
2019-05-30T01:02:54.496Z,98767.76
2019-05-30T01:05:22.430Z,98765.11
2019-05-30T01:07:50.289Z,98766.53
2019-05-30T01:10:18.131Z,98761.97
2019-05-30T01:12:46.319Z,98766.66
2019-05-30T01:15:14.315Z,98765.37
2019-05-30T01:17:42.070Z,98769.81
2019-05-30T01:20:10.455Z,98766.33
2019-05-30T01:22:38.246Z,98767.88
2019-05-30T01:25:07.605Z,98769.80
2019-05-30T01:27:35.638Z,98766.28
2019-05-30T01:30:03.795Z,98764.18
2019-05-30T01:32:31.646Z,98762.94
2019-05-30T01:34:59.860Z,98768.92
2019-05-30T01:37:27.769Z,98759.73
2019-05-30T01:39:55.831Z,98762.48
2019-05-30T01:42:23.980Z,98763.16
2019-05-30T01:44:51.836Z,98758.30
2019-05-30T01:47:19.607Z,98758.48
2019-05-30T01:49:47.360Z,98765.89
2019-05-30T01:52:15.147Z,98760.59
2019-05-30T01:54:43.232Z,98763.85
2019-05-30T01:57:11.151Z,98768.42
2019-05-30T01:59:39.051Z,98763.05
2019-05-30T02:02:09.102Z,98765.07
2019-05-30T02:04:37.711Z,98762.03
2019-05-30T02:07:05.535Z,98765.41
2019-05-30T02:09:33.311Z,98761.47
2019-05-30T02:12:01.235Z,98763.27
2019-05-30T02:14:29.031Z,98766.76
2019-05-30T02:16:57.505Z,98767.26
2019-05-30T02:19:25.575Z,98776.94
2019-05-30T02:21:53.347Z,98774.42
2019-05-30T02:24:21.177Z,98774.89
2019-05-30T02:26:49.587Z,98780.70
2019-05-30T02:29:17.372Z,98774.11
2019-05-30T02:31:45.132Z,98777.48
2019-05-30T02:34:12.988Z,98780.59
2019-05-30T02:36:41.098Z,98780.54
2019-05-30T02:39:09.875Z,98785.80
2019-05-30T02:41:38.432Z,98785.05
2019-05-30T02:44:07.720Z,98779.52
2019-05-30T02:46:35.766Z,98787.20
2019-05-30T02:49:04.957Z,98792.08
2019-05-30T02:51:33.455Z,98783.58
2019-05-30T02:54:01.588Z,98793.92
2019-05-30T02:56:30.057Z,98782.47
2019-05-30T02:58:57.839Z,98783.58
2019-05-30T03:01:25.599Z,98786.84
2019-05-30T03:03:53.366Z,98791.19
2019-05-30T03:06:21.153Z,98786.42
2019-05-30T03:08:48.916Z,98786.98
2019-05-30T03:11:16.857Z,98794.36
2019-05-30T03:13:44.636Z,98793.20
2019-05-30T03:16:13.626Z,98797.22
2019-05-30T03:18:41.644Z,98794.75
2019-05-30T03:21:11.114Z,98797.92
2019-05-30T03:23:39.347Z,98803.28
2019-05-30T03:26:09.778Z,98805.89
2019-05-30T03:28:36.613Z,98804.64
2019-05-30T03:31:10.504Z,98807.60
2019-05-30T03:33:40.890Z,98812.52
2019-05-30T03:36:09.100Z,98816.23
2019-05-30T03:38:33.230Z,98814.95
2019-05-30T03:41:01.015Z,98817.31
2019-05-30T03:43:28.780Z,98819.91
2019-05-30T03:45:57.106Z,98830.31
2019-05-30T03:48:24.873Z,98833.42
2019-05-30T03:50:52.643Z,98834.26
2019-05-30T03:53:20.414Z,98838.69
2019-05-30T03:55:50.174Z,98833.01
2019-05-30T03:58:22.304Z,98842.95
2019-05-30T04:00:51.905Z,98842.06
2019-05-30T04:03:25.485Z,98844.97
2019-05-30T04:05:55.583Z,98840.55
2019-05-30T04:08:23.426Z,98851.84
2019-05-30T04:10:51.196Z,98850.59
2019-05-30T04:13:24.348Z,98857.13
2019-05-30T04:15:52.260Z,98854.98
2019-05-30T04:18:20.367Z,98852.04
2019-05-30T04:20:48.155Z,98855.47
2019-05-30T04:23:16.908Z,98859.48
2019-05-30T04:25:45.404Z,98856.89
2019-05-30T04:28:14.106Z,98861.42
2019-05-30T04:30:42.384Z,98866.22
2019-05-30T04:33:22.459Z,98856.52
2019-05-30T04:35:40.736Z,98861.54
2019-05-30T04:38:08.633Z,98867.63
2019-05-30T04:40:36.438Z,98871.53
2019-05-30T04:43:04.289Z,98868.08
2019-05-30T04:45:32.048Z,98866.70
2019-05-30T04:47:59.900Z,98868.15
2019-05-30T04:50:27.678Z,98872.16
2019-05-30T04:52:55.559Z,98877.04
2019-05-30T04:55:23.388Z,98876.48
2019-05-30T04:57:51.157Z,98875.88
2019-05-30T05:00:19.459Z,98876.12
2019-05-30T05:02:47.359Z,98870.28
2019-05-30T05:05:20.891Z,98875.09
2019-05-30T05:07:44.627Z,98877.66
2019-05-30T05:10:13.947Z,98878.13
2019-05-30T05:12:42.047Z,98881.20
2019-05-30T05:15:09.979Z,98876.93
2019-05-30T05:17:37.887Z,98879.73
2019-05-30T05:20:06.352Z,98885.73
2019-05-30T05:22:34.201Z,98884.24
2019-05-30T05:25:01.987Z,98883.63
2019-05-30T05:27:29.831Z,98893.05
2019-05-30T05:29:57.607Z,98881.13
2019-05-30T05:32:25.365Z,98887.53
2019-05-30T05:34:53.153Z,98892.59
2019-05-30T05:37:21.174Z,98886.80
2019-05-30T05:39:49.374Z,98884.41
2019-05-30T05:42:18.065Z,98887.52
2019-05-30T05:44:46.187Z,98890.80
2019-05-30T05:47:13.979Z,98896.05
2019-05-30T05:49:41.768Z,98894.38
2019-05-30T05:52:12.051Z,98895.94
2019-05-30T05:54:39.331Z,98903.94
2019-05-30T05:57:07.154Z,98904.65
2019-05-30T05:59:35.271Z,98900.38
2019-05-30T06:02:03.175Z,98903.85
2019-05-30T06:04:30.937Z,98898.14
2019-05-30T06:06:58.687Z,98897.35
2019-05-30T06:09:26.456Z,98905.70
2019-05-30T06:11:54.621Z,98901.34
2019-05-30T06:14:22.495Z,98906.57
2019-05-30T06:16:50.366Z,98903.59
2019-05-30T06:19:19.141Z,98901.98
2019-05-30T06:21:54.078Z,98896.49
2019-05-30T06:24:17.640Z,98893.83
2019-05-30T06:26:45.610Z,98893.65
2019-05-30T06:29:13.442Z,98889.34
2019-05-30T06:31:41.222Z,98888.05
2019-05-30T06:34:08.988Z,98886.88
2019-05-30T06:36:36.742Z,98887.77
2019-05-30T06:39:06.548Z,98893.28
2019-05-30T06:41:34.343Z,98900.59
2019-05-30T06:44:05.571Z,98896.50
2019-05-30T06:46:31.763Z,98895.21
2019-05-30T06:49:00.028Z,98896.02
2019-05-30T06:51:28.976Z,98891.40
2019-05-30T06:53:56.960Z,98890.16
2019-05-30T06:56:25.277Z,98895.48
2019-05-30T06:58:53.127Z,98896.74
2019-05-30T07:01:22.028Z,98890.16
2019-05-30T07:03:50.124Z,98890.33
2019-05-30T07:06:18.429Z,98889.02
2019-05-30T07:08:46.551Z,98891.45
2019-05-30T07:11:14.328Z,98897.01
2019-05-30T07:13:42.102Z,98891.13
2019-05-30T07:16:10.255Z,98881.09
2019-05-30T07:18:38.059Z,98887.03
2019-05-30T07:21:05.920Z,98890.46
2019-05-30T07:23:34.046Z,98888.07
2019-05-30T07:26:03.508Z,98894.16
2019-05-30T07:28:32.044Z,98898.27
2019-05-30T07:31:00.419Z,98898.86
2019-05-30T07:33:28.202Z,98895.79
2019-05-30T07:35:55.962Z,98899.79
2019-05-30T07:38:24.332Z,98901.95
2019-05-30T07:40:52.194Z,98900.21
2019-05-30T07:43:19.973Z,98907.53
2019-05-30T07:45:57.637Z,98904.11
2019-05-30T07:48:17.265Z,98902.83
2019-05-30T07:50:45.035Z,98906.70
2019-05-30T07:53:12.809Z,98902.95
2019-05-30T07:55:40.616Z,98909.05
2019-05-30T07:58:08.380Z,98908.45
2019-05-30T08:00:36.139Z,98902.79
2019-05-30T08:03:04.188Z,98904.94
2019-05-30T08:05:32.636Z,98904.11
2019-05-30T08:08:00.559Z,98905.36
2019-05-30T08:10:28.407Z,98905.59
2019-05-30T08:12:56.163Z,98910.70
2019-05-30T08:15:23.991Z,98909.67
2019-05-30T08:17:52.186Z,98914.85
2019-05-30T08:20:20.487Z,98918.00
2019-05-30T08:22:48.231Z,98916.50
2019-05-30T08:25:16.011Z,98918.77
2019-05-30T08:27:43.768Z,98917.34
2019-05-30T08:30:13.122Z,98918.41
2019-05-30T08:32:40.923Z,98912.86
2019-05-30T08:35:08.764Z,98910.30
2019-05-30T08:37:37.276Z,98909.74
2019-05-30T08:40:05.547Z,98904.66
2019-05-30T08:42:33.317Z,98910.78
2019-05-30T08:45:01.080Z,98907.70
2019-05-30T08:47:29.819Z,98910.78
2019-05-30T08:49:57.724Z,98908.45
2019-05-30T08:52:25.568Z,98911.22
2019-05-30T08:54:53.341Z,98905.33
2019-05-30T08:57:21.112Z,98904.75
2019-05-30T08:59:48.884Z,98903.69
2019-05-30T09:02:16.689Z,98903.17
2019-05-30T09:04:44.532Z,98906.25
2019-05-30T09:07:12.304Z,98897.77
2019-05-30T09:09:40.274Z,98908.22
2019-05-30T09:12:08.113Z,98912.91
2019-05-30T09:14:37.357Z,98902.20
2019-05-30T09:17:06.207Z,98908.23
2019-05-30T09:19:34.059Z,98912.98
2019-05-30T09:22:01.822Z,98907.42
2019-05-30T09:24:29.583Z,98898.05
2019-05-30T09:26:57.343Z,98904.63
2019-05-30T09:29:25.192Z,98898.84
2019-05-30T09:31:52.964Z,98899.87
2019-05-30T09:34:20.840Z,98890.77
2019-05-30T09:36:49.124Z,98900.31
2019-05-30T09:39:17.133Z,98893.84
2019-05-30T09:41:45.729Z,98900.38
2019-05-30T09:44:13.538Z,98895.52
2019-05-30T09:46:42.482Z,98890.01
2019-05-30T09:49:10.728Z,98893.81
2019-05-30T09:51:38.485Z,98899.16
2019-05-30T09:54:06.264Z,98902.56
2019-05-30T09:56:34.564Z,98899.22
2019-05-30T09:59:02.383Z,98903.53
2019-05-30T10:01:30.174Z,98906.84
2019-05-30T10:03:58.356Z,98903.09
2019-05-30T10:06:29.578Z,98900.45
2019-05-30T10:08:55.645Z,98897.84
2019-05-30T10:11:23.494Z,98897.50
2019-05-30T10:13:52.584Z,98896.17
2019-05-30T10:16:20.733Z,98901.81
2019-05-30T10:18:49.119Z,98898.56
2019-05-30T10:21:17.344Z,98886.34
2019-05-30T10:23:46.183Z,98890.34
2019-05-30T10:26:14.685Z,98889.07
2019-05-30T10:28:42.452Z,98884.25
2019-05-30T10:31:10.225Z,98887.19
2019-05-30T10:33:38.255Z,98889.77
2019-05-30T10:36:06.035Z,98880.00
2019-05-30T10:38:34.594Z,98879.53
2019-05-30T10:41:02.355Z,98879.93
2019-05-30T10:43:30.107Z,98882.91
2019-05-30T10:45:57.883Z,98883.33
2019-05-30T10:48:25.651Z,98882.49
2019-05-30T10:50:54.434Z,98877.87
2019-05-30T10:53:22.389Z,98876.48
2019-05-30T10:55:50.234Z,98879.56
2019-05-30T10:58:18.168Z,98872.50
2019-05-30T11:00:53.109Z,98866.76
2019-05-30T11:03:20.939Z,98862.12
2019-05-30T11:05:52.865Z,98870.27
2019-05-30T11:08:22.082Z,98868.70
2019-05-30T11:10:50.619Z,98862.41
2019-05-30T11:13:18.596Z,98863.16
2019-05-30T11:15:46.874Z,98855.91
2019-05-30T11:18:16.154Z,98844.11
2019-05-30T11:20:43.916Z,98849.09
2019-05-30T11:23:12.017Z,98842.27
2019-05-30T11:25:40.455Z,98845.50
2019-05-30T11:28:08.636Z,98838.92
2019-05-30T11:30:36.401Z,98835.12
2019-05-30T11:33:04.352Z,98823.05
2019-05-30T11:35:32.524Z,98819.16
2019-05-30T11:38:00.301Z,98818.31
2019-05-30T11:40:28.059Z,98814.97
2019-05-30T11:42:57.433Z,98822.05
2019-05-30T11:45:25.607Z,98818.54
2019-05-30T11:47:53.851Z,98808.19
2019-05-30T11:50:21.711Z,98803.67
2019-05-30T11:52:49.817Z,98803.63
2019-05-30T11:55:17.926Z,98801.20
2019-05-30T11:57:46.015Z,98798.04
2019-05-30T12:00:14.209Z,98793.77
2019-05-30T12:02:41.969Z,98795.82
2019-05-30T12:05:09.795Z,98791.31
2019-05-30T12:07:37.572Z,98795.68
2019-05-30T12:10:05.458Z,98791.95
2019-05-30T12:12:33.224Z,98787.28
2019-05-30T12:15:01.640Z,98785.84
2019-05-30T12:17:29.640Z,98786.58
2019-05-30T12:19:57.612Z,98774.78
2019-05-30T12:22:25.454Z,98777.97
2019-05-30T12:24:53.857Z,98776.52
2019-05-30T12:27:22.014Z,98779.78
2019-05-30T12:29:49.780Z,98777.26
2019-05-30T12:32:17.815Z,98773.48
2019-05-30T12:34:45.567Z,98775.33
2019-05-30T12:37:13.663Z,98791.45
2019-05-30T12:39:41.500Z,98777.52
2019-05-30T12:42:09.255Z,98765.95
2019-05-30T12:44:37.035Z,98763.36
2019-05-30T12:47:04.864Z,98758.87
2019-05-30T12:49:32.619Z,98763.64
2019-05-30T12:52:00.644Z,98762.06
2019-05-30T12:54:28.483Z,98763.40
2019-05-30T12:56:56.603Z,98763.23
2019-05-30T12:59:24.725Z,98760.16
2019-05-30T13:01:52.598Z,98761.59
2019-05-30T13:04:20.638Z,98762.05
2019-05-30T13:06:48.434Z,98756.57
2019-05-30T13:09:16.284Z,98755.14
2019-05-30T13:11:44.134Z,98758.37
2019-05-30T13:14:12.010Z,98752.26
2019-05-30T13:16:40.200Z,98746.41
2019-05-30T13:19:08.308Z,98751.16
2019-05-30T13:21:36.133Z,98754.12
2019-05-30T13:24:03.956Z,98748.36
2019-05-30T13:26:31.724Z,98733.56
2019-05-30T13:29:00.318Z,98742.19
2019-05-30T13:31:28.198Z,98740.48
2019-05-30T13:33:56.786Z,98743.48
2019-05-30T13:36:24.640Z,98731.97
2019-05-30T13:38:52.445Z,98733.02
2019-05-30T13:41:20.204Z,98735.98
2019-05-30T13:43:47.977Z,98737.61
2019-05-30T13:46:15.734Z,98737.61
2019-05-30T13:48:43.487Z,98734.82
2019-05-30T13:51:11.261Z,98724.45
2019-05-30T13:53:39.303Z,98722.95
2019-05-30T13:56:07.803Z,98728.16
2019-05-30T13:58:35.617Z,98729.11
2019-05-30T14:01:07.806Z,98722.42
2019-05-30T14:03:32.854Z,98730.11
2019-05-30T14:06:02.818Z,98720.20
2019-05-30T14:08:41.047Z,98713.86
2019-05-30T14:11:00.512Z,98711.86
2019-05-30T14:13:28.388Z,98715.50
2019-05-30T14:15:56.247Z,98706.77
2019-05-30T14:18:23.995Z,98714.39
2019-05-30T14:20:51.769Z,98706.34
2019-05-30T14:23:19.533Z,98700.78
2019-05-30T14:25:47.298Z,98702.38
2019-05-30T14:28:15.072Z,98701.48
2019-05-30T14:30:42.912Z,98712.08
2019-05-30T14:33:10.682Z,98706.48
2019-05-30T14:35:38.812Z,98709.22
2019-05-30T14:38:06.674Z,98710.32
2019-05-30T14:40:34.480Z,98711.22
2019-05-30T14:43:03.227Z,98720.96
2019-05-30T14:45:31.416Z,98720.61
2019-05-30T14:47:59.187Z,98717.47
2019-05-30T14:50:27.311Z,98704.08
2019-05-30T14:52:55.096Z,98708.62
2019-05-30T14:55:22.901Z,98708.29
2019-05-30T14:57:50.743Z,98703.56
2019-05-30T15:00:18.572Z,98702.36
2019-05-30T15:02:46.492Z,98705.14
2019-05-30T15:05:15.708Z,98703.16
2019-05-30T15:07:43.667Z,98711.81
2019-05-30T15:10:12.733Z,98700.53
2019-05-30T15:12:40.786Z,98703.09
2019-05-30T15:15:12.592Z,98705.75
2019-05-30T15:17:38.225Z,98699.73
2019-05-30T15:20:07.373Z,98702.88
2019-05-30T15:22:35.251Z,98705.32
2019-05-30T15:25:03.003Z,98708.19
2019-05-30T15:27:30.795Z,98706.19
2019-05-30T15:29:58.552Z,98701.61
2019-05-30T15:32:26.334Z,98701.28
2019-05-30T15:34:54.145Z,98704.38
2019-05-30T15:37:22.291Z,98708.17
2019-05-30T15:39:50.056Z,98701.28
2019-05-30T15:42:17.919Z,98704.52
2019-05-30T15:44:45.688Z,98697.67
2019-05-30T15:47:14.532Z,98694.53
2019-05-30T15:49:42.312Z,98695.92
2019-05-30T15:52:11.630Z,98701.95
2019-05-30T15:54:40.019Z,98690.30
2019-05-30T15:57:09.117Z,98691.73
2019-05-30T15:59:37.080Z,98693.51
2019-05-30T16:02:04.924Z,98693.31
2019-05-30T16:04:32.706Z,98687.86
2019-05-30T16:07:00.743Z,98693.31
2019-05-30T16:09:28.503Z,98687.08
2019-05-30T16:11:56.323Z,98693.91
2019-05-30T16:14:24.217Z,98698.33
2019-05-30T16:16:52.043Z,98694.38
2019-05-30T16:19:24.722Z,98703.67
2019-05-30T16:21:49.615Z,98699.28
2019-05-30T16:24:18.519Z,98699.53
2019-05-30T16:26:46.406Z,98704.60
2019-05-30T16:29:14.168Z,98694.19
2019-05-30T16:31:42.036Z,98693.16
2019-05-30T16:34:09.847Z,98692.13
2019-05-30T16:36:37.618Z,98687.76
2019-05-30T16:39:06.530Z,98687.42
2019-05-30T16:41:34.296Z,98686.04
2019-05-30T16:44:02.378Z,98690.63
2019-05-30T16:46:30.156Z,98689.84
2019-05-30T16:48:57.940Z,98692.82
2019-05-30T16:51:26.794Z,98690.23
2019-05-30T16:53:54.847Z,98686.28
2019-05-30T16:56:23.562Z,98683.77
2019-05-30T16:58:51.504Z,98681.73
2019-05-30T17:01:19.827Z,98678.56
2019-05-30T17:03:48.308Z,98679.62
2019-05-30T17:06:16.069Z,98686.58
2019-05-30T17:08:43.863Z,98685.27
2019-05-30T17:11:11.635Z,98682.50
2019-05-30T17:13:39.403Z,98689.67
2019-05-30T17:16:07.223Z,98684.44
2019-05-30T17:18:36.199Z,98682.80
2019-05-30T17:21:04.048Z,98694.94
2019-05-30T17:23:31.909Z,98695.23
2019-05-30T17:25:59.695Z,98696.16
2019-05-30T17:28:27.753Z,98692.66
2019-05-30T17:30:55.507Z,98690.48
2019-05-30T17:33:24.919Z,98703.87
2019-05-30T17:35:53.108Z,98701.34
2019-05-30T17:38:20.890Z,98694.31
2019-05-30T17:40:49.739Z,98693.44
2019-05-30T17:43:18.825Z,98699.48
2019-05-30T17:45:46.663Z,98691.72
2019-05-30T17:48:16.804Z,98691.48
2019-05-30T17:50:43.926Z,98702.14
2019-05-30T17:53:11.681Z,98705.59
2019-05-30T17:55:39.840Z,98702.00
2019-05-30T17:58:10.161Z,98704.52
2019-05-30T18:00:37.128Z,98705.77
2019-05-30T18:03:04.985Z,98704.27
2019-05-30T18:05:33.008Z,98703.40
2019-05-30T18:08:00.796Z,98705.73
2019-05-30T18:10:29.033Z,98700.98
2019-05-30T18:12:56.859Z,98697.24
2019-05-30T18:15:27.636Z,98702.63
2019-05-30T18:17:54.141Z,98697.15
2019-05-30T18:20:23.183Z,98700.48
2019-05-30T18:22:51.031Z,98707.28
2019-05-30T18:25:19.155Z,98703.63
2019-05-30T18:27:46.943Z,98710.92
2019-05-30T18:30:14.875Z,98709.60
2019-05-30T18:32:42.779Z,98714.16
2019-05-30T18:35:13.911Z,98715.67
2019-05-30T18:37:41.715Z,98712.97
2019-05-30T18:40:09.787Z,98713.80
2019-05-30T18:42:37.656Z,98718.45
2019-05-30T18:45:05.754Z,98718.78
2019-05-30T18:47:33.552Z,98717.59
2019-05-30T18:50:01.342Z,98718.09
2019-05-30T18:52:30.353Z,98718.53
2019-05-30T18:54:58.271Z,98714.10
2019-05-30T18:57:26.615Z,98723.70
2019-05-30T18:59:54.600Z,98722.47
2019-05-30T19:02:22.366Z,98720.98
2019-05-30T19:04:50.142Z,98714.39
2019-05-30T19:07:17.961Z,98720.30
2019-05-30T19:09:45.850Z,98723.69
2019-05-30T19:12:13.612Z,98732.02
2019-05-30T19:14:41.388Z,98731.77
2019-05-30T19:17:09.271Z,98736.32
2019-05-30T19:19:37.062Z,98738.07
2019-05-30T19:22:07.693Z,98739.17
2019-05-30T19:24:35.487Z,98736.39
2019-05-30T19:27:03.260Z,98738.26
2019-05-30T19:29:31.142Z,98739.23
2019-05-30T19:31:58.913Z,98747.75
2019-05-30T19:34:26.755Z,98761.72
2019-05-30T19:36:54.523Z,98758.56
2019-05-30T19:39:22.327Z,98762.61
2019-05-30T19:41:56.743Z,98760.46
2019-05-30T19:44:19.603Z,98762.27
2019-05-30T19:46:47.385Z,98766.41
2019-05-30T19:49:15.165Z,98772.11
2019-05-30T19:51:43.023Z,98771.66
2019-05-30T19:54:10.840Z,98776.92
2019-05-30T19:56:40.838Z,98778.53
2019-05-30T19:59:08.135Z,98778.77
2019-05-30T20:01:35.932Z,98779.69
2019-05-30T20:04:03.802Z,98780.24
2019-05-30T20:06:32.478Z,98784.59
2019-05-30T20:09:00.350Z,98788.38
2019-05-30T20:11:28.134Z,98792.80
2019-05-30T20:13:55.998Z,98793.48
2019-05-30T20:16:23.788Z,98788.81
2019-05-30T20:18:51.570Z,98791.56
2019-05-30T20:21:19.568Z,98787.92
2019-05-30T20:23:54.662Z,98791.23
2019-05-30T20:26:16.877Z,98796.23
2019-05-30T20:28:44.663Z,98807.53
2019-05-30T20:31:12.435Z,98800.00
2019-05-30T20:33:40.585Z,98799.78
2019-05-30T20:36:08.570Z,98795.67
2019-05-30T20:38:36.567Z,98801.26
2019-05-30T20:41:04.348Z,98806.81
2019-05-30T20:43:33.299Z,98807.38
2019-05-30T20:46:01.180Z,98813.52
2019-05-30T20:48:28.941Z,98813.16
2019-05-30T20:50:56.736Z,98813.91
2019-05-30T20:53:24.887Z,98816.30
2019-05-30T20:55:52.665Z,98813.50
2019-05-30T20:58:20.505Z,98815.70
2019-05-30T21:00:48.643Z,98819.30
2019-05-30T21:03:16.404Z,98816.63
2019-05-30T21:05:44.216Z,98818.61
2019-05-30T21:08:12.971Z,98818.22
2019-05-30T21:10:41.343Z,98822.75
2019-05-30T21:13:09.212Z,98821.48
2019-05-30T21:15:37.558Z,98829.94
2019-05-30T21:18:06.297Z,98824.95
2019-05-30T21:20:34.254Z,98826.11
2019-05-30T21:23:02.028Z,98822.94
2019-05-30T21:25:29.820Z,98827.76
2019-05-30T21:27:57.946Z,98827.28
2019-05-30T21:30:26.068Z,98826.70
2019-05-30T21:32:54.296Z,98821.34
2019-05-30T21:35:22.828Z,98819.81
2019-05-30T21:37:50.910Z,98828.73
2019-05-30T21:40:18.882Z,98823.27
2019-05-30T21:43:02.754Z,98826.94
2019-05-30T21:45:16.519Z,98829.50
2019-05-30T21:47:44.816Z,98825.13
2019-05-30T21:50:13.283Z,98833.97
2019-05-30T21:52:41.911Z,98826.77
2019-05-30T21:55:09.853Z,98833.27
2019-05-30T21:57:37.879Z,98827.69
2019-05-30T22:00:06.946Z,98835.36
2019-05-30T22:02:34.837Z,98840.06
2019-05-30T22:05:03.114Z,98837.02
2019-05-30T22:07:31.185Z,98836.59
2019-05-30T22:09:58.975Z,98842.56
2019-05-30T22:12:26.960Z,98841.52
2019-05-30T22:14:54.755Z,98844.97
2019-05-30T22:17:22.752Z,98839.55
2019-05-30T22:19:50.626Z,98841.47
2019-05-30T22:22:18.742Z,98850.16
2019-05-30T22:24:48.399Z,98848.58
2019-05-30T22:27:16.464Z,98850.98
2019-05-30T22:29:44.360Z,98843.36
2019-05-30T22:32:12.195Z,98850.80
2019-05-30T22:34:39.945Z,98846.73
2019-05-30T22:37:07.722Z,98848.44
2019-05-30T22:39:35.574Z,98844.50
2019-05-30T22:42:03.624Z,98851.64
2019-05-30T22:44:31.407Z,98842.36
2019-05-30T22:46:59.179Z,98849.23
2019-05-30T22:49:26.933Z,98846.83
2019-05-30T22:51:54.735Z,98848.44
2019-05-30T22:54:22.503Z,98846.91
2019-05-30T22:56:51.437Z,98856.62
2019-05-30T22:59:19.339Z,98856.30
2019-05-30T23:01:47.111Z,98851.33
2019-05-30T23:04:14.871Z,98850.20
2019-05-30T23:06:42.651Z,98843.80
2019-05-30T23:09:10.419Z,98851.50
2019-05-30T23:11:38.267Z,98845.41
2019-05-30T23:14:06.475Z,98850.22
2019-05-30T23:16:34.518Z,98846.77
2019-05-30T23:19:02.538Z,98853.02
2019-05-30T23:21:30.334Z,98849.87
2019-05-30T23:23:58.122Z,98854.69
2019-05-30T23:26:25.890Z,98856.71
2019-05-30T23:28:53.838Z,98849.97
2019-05-30T23:31:21.694Z,98850.91
2019-05-30T23:33:50.296Z,98850.73
2019-05-30T23:36:18.138Z,98849.62
2019-05-30T23:38:45.904Z,98843.75
2019-05-30T23:41:13.686Z,98842.06
2019-05-30T23:43:55.138Z,98844.38
2019-05-30T23:46:11.266Z,98845.64
2019-05-30T23:48:39.044Z,98840.10
2019-05-30T23:51:07.127Z,98837.52
2019-05-30T23:53:34.894Z,98841.44
2019-05-30T23:56:02.653Z,98838.05
2019-05-30T23:58:30.596Z,98842.56
